| time (UTC) | temp F | wind direction | speed MPH | gust MPH | rain 1hr in | rain 24hr in | rain mn in | humidity % | barometer mb |
| 20260504190719 | 54 | 350 | 5.0 | 13.0 | 0.00 | 0.00 | 0.00 | 87 | 1013.1 |
| 20260504190219 | 54 | 9 | 5.0 | 13.0 | 0.00 | 0.00 | 0.00 | 86 | 1013.1 |
| 20260504185717 | 55 | 340 | 6.0 | 13.0 | 0.00 | 0.00 | 0.00 | 86 | 1013.1 |
| 20260504185218 | 55 | 5 | 7.0 | 14.0 | 0.00 | 0.00 | 0.00 | 86 | 1013.2 |
| 20260504184710 | 55 | 333 | 6.0 | 14.0 | 0.00 | 0.00 | 0.00 | 86 | 1013.1 |
| 20260504184215 | 55 | 342 | 6.0 | 14.0 | 0.00 | 0.00 | 0.00 | 86 | 1013.1 |
| 20260504183706 | 55 | 315 | 6.0 | 13.0 | 0.00 | 0.00 | 0.00 | 85 | 1013.2 |
| 20260504183209 | 55 | 294 | 5.0 | 13.0 | 0.00 | 0.00 | 0.00 | 86 | 1013.1 |
| 20260504182710 | 55 | 327 | 5.0 | 13.0 | 0.00 | 0.00 | 0.00 | 86 | 1013.1 |
| 20260504182215 | 55 | 344 | 5.0 | 13.0 | 0.00 | 0.00 | 0.00 | 85 | 1013.1 |
| 20260504181710 | 55 | 5 | 5.0 | 13.0 | 0.00 | 0.00 | 0.00 | 85 | 1013.0 |
| 20260504181219 | 56 | 5 | 6.0 | 13.0 | 0.00 | 0.00 | 0.00 | 85 | 1013.0 |
| 20260504180706 | 56 | 20 | 5.0 | 13.0 | 0.00 | 0.00 | 0.00 | 85 | 1013.0 |
| 20260504180211 | 56 | 11 | 6.0 | 13.0 | 0.00 | 0.00 | 0.00 | 85 | 1013.1 |
| 20260504175720 | 56 | 315 | 7.0 | 15.0 | 0.00 | 0.00 | 0.00 | 84 | 1013.0 |
| 20260504175210 | 56 | 321 | 7.0 | 16.0 | 0.00 | 0.00 | 0.00 | 84 | 1013.1 |
| 20260504174718 | 56 | 31 | 7.0 | 18.0 | 0.00 | 0.00 | 0.00 | 84 | 1013.1 |
| 20260504174217 | 56 | 20 | 7.0 | 18.0 | 0.00 | 0.00 | 0.00 | 84 | 1013.1 |
| 20260504173706 | 56 | 58 | 8.0 | 17.0 | 0.00 | 0.00 | 0.00 | 84 | 1013.1 |
| 20260504173211 | 56 | 19 | 8.0 | 17.0 | 0.00 | 0.00 | 0.00 | 83 | 1013.1 |
| 20260504172714 | 56 | 341 | 7.0 | 17.0 | 0.00 | 0.00 | 0.00 | 84 | 1013.1 |
| 20260504172208 | 56 | 5 | 8.0 | 14.0 | 0.00 | 0.00 | 0.00 | 83 | 1013.1 |
| 20260504171710 | 56 | 324 | 7.0 | 14.0 | 0.00 | 0.00 | 0.00 | 83 | 1013.1 |
| 20260504171210 | 56 | 355 | 6.0 | 15.0 | 0.00 | 0.00 | 0.00 | 84 | 1013.1 |
| 20260504170716 | 56 | 325 | 7.0 | 15.0 | 0.00 | 0.00 | 0.00 | 84 | 1013.2 |
| 20260504170210 | 56 | 19 | 6.0 | 15.0 | 0.00 | 0.00 | 0.00 | 84 | 1013.2 |
| 20260504160208 | 57 | 329 | 6.0 | 13.0 | 0.00 | 0.00 | 0.00 | 84 | 1013.2 |
| 20260504150715 | 58 | 5 | 6.0 | 15.0 | 0.00 | 0.00 | 0.00 | 84 | 1013.0 |
| 20260504150217 | 58 | 308 | 6.0 | 14.0 | 0.00 | 0.00 | 0.00 | 83 | 1013.1 |
| 20260504141225 | 60 | 325 | 4.0 | 10.0 | 0.00 | 0.00 | 0.00 | 81 | 1013.1 |
| 20260504140706 | 61 | 336 | 4.0 | 11.0 | 0.00 | 0.00 | 0.00 | 80 | 1013.3 |
| 20260504140216 | 61 | 284 | 4.0 | 11.0 | 0.00 | 0.00 | 0.00 | 80 | 1013.2 |
| 20260504130707 | 62 | 15 | 4.0 | 9.0 | 0.00 | 0.00 | 0.00 | 78 | 1013.4 |
| 20260504130218 | 62 | 311 | 3.0 | 9.0 | 0.00 | 0.00 | 0.00 | 76 | 1013.4 |
| 20260504110714 | 60 | 319 | 3.0 | 9.0 | 0.00 | 0.00 | 0.00 | 80 | 1013.4 |
| 20260504100206 | 61 | 331 | 3.0 | 9.0 | 0.00 | 0.02 | 0.00 | 81 | 1013.5 |
| 20260504081719 | 60 | 301 | 2.0 | 8.0 | 0.00 | 0.07 | 0.00 | 84 | 1013.1 |
| 20260504081216 | 60 | 281 | 2.0 | 7.0 | 0.00 | 0.07 | 0.00 | 84 | 1013.2 |
| 20260504080719 | 60 | 298 | 2.0 | 7.0 | 0.00 | 0.07 | 0.00 | 85 | 1013.1 |
| 20260504080209 | 60 | 303 | 1.0 | 7.0 | 0.00 | 0.07 | 0.00 | 85 | 1013.0 |
| 20260504070215 | 58 | 282 | 0.0 | 2.0 | 0.00 | 0.07 | 0.00 | 92 | 1012.4 |
| 20260504060209 | 55 | 306 | 0.0 | 1.0 | 0.00 | 0.07 | 0.00 | 93 | 1012.1 |
| 20260504050711 | 56 | 138 | 0.0 | 3.0 | 0.00 | 0.07 | 0.00 | 93 | 1011.7 |
| 20260504050219 | 55 | 138 | 1.0 | 3.0 | 0.00 | 0.07 | 0.00 | 93 | 1011.7 |
| 20260504045711 | 55 | 138 | 1.0 | 3.0 | 0.00 | 0.07 | 0.00 | 93 | 1011.6 |
| 20260504045208 | 55 | 202 | 0.0 | 2.0 | 0.00 | 0.07 | 0.00 | 93 | 1011.6 |
| 20260504044716 | 55 | 202 | 0.0 | 2.0 | 0.00 | 0.07 | 0.00 | 93 | 1011.4 |
| 20260504044218 | 55 | 202 | 0.0 | 2.0 | 0.00 | 0.07 | 0.00 | 93 | 1011.4 |
| 20260504043713 | 55 | 202 | 0.0 | 3.0 | 0.00 | 0.07 | 0.00 | 93 | 1011.4 |
| 20260504042212 | 55 | 202 | 0.0 | 3.0 | 0.00 | 0.07 | 0.00 | 93 | 1011.2 |
| 20260504041212 | 55 | 201 | 0.0 | 2.0 | 0.00 | 0.07 | 0.00 | 93 | 1011.2 |
| 20260504040716 | 55 | 201 | 0.0 | 2.0 | 0.00 | 0.07 | 0.00 | 93 | 1011.3 |
| 20260504040214 | 55 | 201 | 0.0 | 2.0 | 0.00 | 0.07 | 0.00 | 93 | 1011.2 |
| 20260504035712 | 56 | 202 | 0.0 | 2.0 | 0.00 | 0.07 | 0.00 | 93 | 1011.2 |
| 20260504035218 | 56 | 201 | 0.0 | 2.0 | 0.00 | 0.07 | 0.00 | 93 | 1011.3 |
| 20260504034717 | 56 | 201 | 0.0 | 1.0 | 0.00 | 0.07 | 0.00 | 93 | 1011.2 |
| 20260504033705 | 55 | 201 | 0.0 | 1.0 | 0.00 | 0.07 | 0.00 | 93 | 1011.2 |
| 20260504032715 | 55 | 201 | 0.0 | 0.0 | 0.00 | 0.07 | 0.00 | 92 | 1011.2 |
| 20260504032216 | 55 | 201 | 0.0 | 0.0 | 0.00 | 0.07 | 0.00 | 92 | 1011.3 |
| 20260504031719 | 55 | 201 | 0.0 | 0.0 | 0.00 | 0.07 | 0.00 | 92 | 1011.3 |
| 20260504031208 | 55 | 202 | 0.0 | 0.0 | 0.00 | 0.07 | 0.00 | 92 | 1011.4 |
| 20260504030719 | 55 | 202 | 0.0 | 0.0 | 0.00 | 0.07 | 0.00 | 92 | 1011.5 |
| 20260504030206 | 55 | 202 | 0.0 | 0.0 | 0.00 | 0.07 | 0.00 | 92 | 1011.5 |
| 20260504025716 | 55 | 202 | 0.0 | 0.0 | 0.00 | 0.07 | 0.00 | 92 | 1011.5 |
| 20260504025210 | 55 | 202 | 0.0 | 2.0 | 0.00 | 0.07 | 0.00 | 92 | 1011.4 |
| 20260504024720 | 55 | 201 | 0.0 | 2.0 | 0.00 | 0.07 | 0.00 | 92 | 1011.4 |
| 20260504024212 | 55 | 202 | 0.0 | 3.0 | 0.00 | 0.08 | 0.00 | 92 | 1011.4 |
| 20260504023713 | 55 | 202 | 0.0 | 3.0 | 0.00 | 0.09 | 0.00 | 92 | 1011.3 |
| 20260504023217 | 55 | 202 | 0.0 | 3.0 | 0.00 | 0.10 | 0.00 | 92 | 1011.3 |
| 20260504022217 | 55 | 202 | 0.0 | 1.0 | 0.00 | 0.12 | 0.00 | 92 | 1011.2 |
| 20260504021713 | 55 | 202 | 0.0 | 0.0 | 0.00 | 0.13 | 0.00 | 92 | 1011.3 |
| 20260504021206 | 55 | 202 | 0.0 | 0.0 | 0.00 | 0.13 | 0.00 | 92 | 1011.3 |
| 20260504020707 | 55 | 202 | 0.0 | 0.0 | 0.00 | 0.13 | 0.00 | 92 | 1011.3 |
| 20260504020212 | 55 | 202 | 0.0 | 0.0 | 0.00 | 0.13 | 0.00 | 92 | 1011.3 |
| 20260504014719 | 55 | 202 | 0.0 | 0.0 | 0.00 | 0.13 | 0.00 | 92 | 1011.3 |
| 20260504014212 | 56 | 202 | 0.0 | 0.0 | 0.00 | 0.13 | 0.00 | 92 | 1011.3 |
| 20260504013709 | 56 | 202 | 0.0 | 0.0 | 0.00 | 0.13 | 0.00 | 92 | 1011.4 |
| 20260504013218 | 56 | 202 | 0.0 | 1.0 | 0.00 | 0.13 | 0.00 | 92 | 1011.4 |
| 20260504012708 | 56 | 202 | 0.0 | 1.0 | 0.00 | 0.13 | 0.00 | 91 | 1011.3 |
| 20260504011212 | 56 | 202 | 0.0 | 0.0 | 0.00 | 0.14 | 0.00 | 91 | 1011.4 |
| 20260504010716 | 56 | 202 | 0.0 | 1.0 | 0.00 | 0.14 | 0.00 | 91 | 1011.3 |
| 20260504005219 | 56 | 202 | 0.0 | 0.0 | 0.00 | 0.14 | 0.00 | 91 | 1011.2 |
| 20260504004720 | 56 | 201 | 0.0 | 0.0 | 0.00 | 0.14 | 0.00 | 91 | 1011.2 |
| 20260504004214 | 56 | 201 | 0.0 | 1.0 | 0.00 | 0.14 | 0.00 | 91 | 1011.2 |
| 20260504003717 | 56 | 202 | 0.0 | 2.0 | 0.00 | 0.14 | 0.00 | 91 | 1011.3 |
| 20260504002707 | 56 | 202 | 0.0 | 2.0 | 0.00 | 0.14 | 0.00 | 91 | 1011.3 |
| 20260504002214 | 56 | 201 | 0.0 | 1.0 | 0.00 | 0.14 | 0.00 | 91 | 1011.2 |
| 20260504001707 | 56 | 201 | 0.0 | 2.0 | 0.00 | 0.14 | 0.00 | 91 | 1011.2 |
| 20260504000206 | 57 | 201 | 0.0 | 2.0 | 0.00 | 0.14 | 0.00 | 91 | 1011.2 |
| 20260503235720 | 57 | 202 | 0.0 | 0.0 | 0.00 | 0.14 | 0.00 | 91 | 1011.3 |
| 20260503235211 | 57 | 202 | 0.0 | 0.0 | 0.00 | 0.14 | 0.00 | 91 | 1011.3 |
| 20260503234716 | 57 | 201 | 0.0 | 0.0 | 0.00 | 0.14 | 0.00 | 91 | 1011.3 |
| 20260503234212 | 57 | 201 | 0.0 | 2.0 | 0.00 | 0.14 | 0.00 | 91 | 1011.4 |
| 20260503233713 | 57 | 201 | 0.0 | 3.0 | 0.00 | 0.14 | 0.00 | 91 | 1011.4 |
| 20260503233205 | 57 | 201 | 0.0 | 3.0 | 0.00 | 0.14 | 0.00 | 91 | 1011.4 |
| 20260503232706 | 57 | 201 | 0.0 | 1.0 | 0.00 | 0.14 | 0.00 | 91 | 1011.4 |
| 20260503232215 | 57 | 201 | 0.0 | 1.0 | 0.00 | 0.15 | 0.00 | 91 | 1011.4 |
| 20260503231715 | 57 | 201 | 0.0 | 1.0 | 0.00 | 0.15 | 0.00 | 91 | 1011.4 |
| 20260503231217 | 57 | 201 | 0.0 | 1.0 | 0.00 | 0.15 | 0.00 | 91 | 1011.3 |
| 20260503230719 | 57 | 201 | 0.0 | 1.0 | 0.00 | 0.15 | 0.00 | 91 | 1011.4 |
| 20260503230216 | 57 | 201 | 0.0 | 1.0 | 0.00 | 0.15 | 0.00 | 91 | 1011.3 |
| 20260503225712 | 57 | 201 | 0.0 | 1.0 | 0.00 | 0.15 | 0.00 | 90 | 1011.3 |
| 20260503225216 | 57 | 201 | 0.0 | 1.0 | 0.00 | 0.15 | 0.00 | 90 | 1011.3 |
| 20260503224711 | 57 | 201 | 0.0 | 2.0 | 0.00 | 0.15 | 0.00 | 90 | 1011.4 |
| 20260503224209 | 58 | 201 | 0.0 | 2.0 | 0.00 | 0.15 | 0.00 | 90 | 1011.3 |
| 20260503223714 | 58 | 201 | 0.0 | 2.0 | 0.00 | 0.15 | 0.00 | 90 | 1011.3 |
| 20260503223208 | 58 | 201 | 0.0 | 4.0 | 0.00 | 0.15 | 0.00 | 90 | 1011.4 |
| 20260503222709 | 58 | 201 | 0.0 | 4.0 | 0.00 | 0.15 | 0.00 | 90 | 1011.4 |
| 20260503222211 | 58 | 201 | 0.0 | 4.0 | 0.00 | 0.15 | 0.00 | 90 | 1011.5 |
| 20260503220718 | 58 | 117 | 0.0 | 4.0 | 0.00 | 0.15 | 0.00 | 90 | 1011.3 |
| 20260503215707 | 58 | 164 | 1.0 | 3.0 | 0.00 | 0.15 | 0.15 | 90 | 1011.2 |
| 20260503215206 | 58 | 142 | 0.0 | 3.0 | 0.00 | 0.15 | 0.15 | 90 | 1011.2 |
| 20260503214712 | 58 | 142 | 0.0 | 3.0 | 0.00 | 0.15 | 0.15 | 89 | 1011.1 |
| 20260503214215 | 58 | 180 | 0.0 | 3.0 | 0.00 | 0.15 | 0.15 | 89 | 1011.1 |
| 20260503213711 | 58 | 180 | 0.0 | 3.0 | 0.00 | 0.15 | 0.15 | 89 | 1011.1 |
| 20260503213210 | 58 | 163 | 0.0 | 4.0 | 0.00 | 0.15 | 0.15 | 89 | 1011.1 |
| 20260503212705 | 58 | 184 | 0.0 | 4.0 | 0.00 | 0.15 | 0.15 | 89 | 1011.1 |
| 20260503212212 | 58 | 195 | 1.0 | 4.0 | 0.00 | 0.15 | 0.15 | 89 | 1011.1 |
| 20260503211711 | 58 | 177 | 1.0 | 4.0 | 0.00 | 0.16 | 0.15 | 89 | 1011.2 |
| 20260503211207 | 58 | 169 | 0.0 | 4.0 | 0.00 | 0.17 | 0.15 | 89 | 1011.1 |
| 20260503210714 | 58 | 153 | 0.0 | 4.0 | 0.00 | 0.17 | 0.15 | 89 | 1011.1 |
| 20260503210218 | 58 | 153 | 0.0 | 3.0 | 0.00 | 0.17 | 0.15 | 89 | 1011.1 |
| 20260503205709 | 58 | 132 | 0.0 | 4.0 | 0.00 | 0.18 | 0.15 | 88 | 1011.1 |
| 20260503205212 | 58 | 188 | 0.0 | 4.0 | 0.00 | 0.18 | 0.15 | 88 | 1011.1 |
| 20260503204220 | 59 | 182 | 0.0 | 5.0 | 0.00 | 0.20 | 0.15 | 88 | 1011.1 |
| 20260503203716 | 59 | 139 | 1.0 | 5.0 | 0.00 | 0.21 | 0.15 | 88 | 1011.1 |
| 20260503203207 | 59 | 196 | 1.0 | 5.0 | 0.00 | 0.23 | 0.15 | 88 | 1011.2 |
| 20260503202210 | 59 | 159 | 0.0 | 5.0 | 0.00 | 0.23 | 0.15 | 88 | 1011.3 |
| 20260503201717 | 59 | 182 | 0.0 | 3.0 | 0.00 | 0.23 | 0.15 | 88 | 1011.1 |
| 20260503201216 | 59 | 154 | 0.0 | 3.0 | 0.00 | 0.23 | 0.15 | 88 | 1011.0 |
| 20260503200709 | 59 | 154 | 0.0 | 3.0 | 0.00 | 0.23 | 0.15 | 88 | 1011.0 |
| 20260503200216 | 60 | 154 | 0.0 | 4.0 | 0.00 | 0.23 | 0.15 | 87 | 1010.9 |
| 20260503195715 | 60 | 154 | 0.0 | 4.0 | 0.00 | 0.23 | 0.15 | 87 | 1010.9 |
| 20260503195218 | 60 | 154 | 1.0 | 4.0 | 0.00 | 0.23 | 0.15 | 87 | 1010.8 |
| 20260503194708 | 60 | 144 | 0.0 | 3.0 | 0.00 | 0.23 | 0.15 | 87 | 1010.8 |
| 20260503194208 | 60 | 186 | 0.0 | 3.0 | 0.00 | 0.23 | 0.15 | 87 | 1010.7 |
| 20260503193708 | 60 | 186 | 0.0 | 3.0 | 0.00 | 0.23 | 0.15 | 87 | 1010.7 |
| 20260503193216 | 60 | 186 | 0.0 | 3.0 | 0.00 | 0.23 | 0.15 | 87 | 1010.6 |
| 20260503192716 | 60 | 189 | 0.0 | 3.0 | 0.00 | 0.23 | 0.15 | 87 | 1010.6 |
| 20260503191706 | 60 | 151 | 0.0 | 3.0 | 0.00 | 0.23 | 0.15 | 87 | 1010.4 |